Time;durP1;ratioP1;P1;durP2;ratioP2;P2;SDS_P1;SDS_P2;PMS_P1;PMS_P2;Temp;Humidity;BMP_temperature;BMP_pressure;BME280_temperature;BME280_humidity;BME280_pressure;Samples;Min_cycle;Max_cycle;Signal;HPM_P1;HPM_P2
2020/12/19 00:01:04;;;;;;;8.93;6.37;;;8.30;99.90;;;;;;5054355;28;20193;-65
2020/12/19 00:03:29;;;;;;;9.90;6.83;;;8.30;99.90;;;;;;5054403;28;20431;-65
2020/12/19 00:05:55;;;;;;;11.30;7.67;;;7.90;99.90;;;;;;5054251;28;20200;-65
2020/12/19 00:08:20;;;;;;;7.73;6.77;;;8.10;17.20;;;;;;5054163;28;20691;-65
2020/12/19 00:10:46;;;;;;;11.80;7.00;;;8.20;1.00;;;;;;5054270;28;20716;-65
2020/12/19 00:13:12;;;;;;;9.87;6.70;;;8.30;99.90;;;;;;5054519;28;20164;-65
2020/12/19 00:15:37;;;;;;;10.57;6.33;;;8.30;99.90;;;;;;5054171;28;20638;-65
2020/12/19 00:18:03;;;;;;;9.63;6.80;;;8.40;99.90;;;;;;5054480;28;20173;-65
2020/12/19 00:20:29;;;;;;;9.90;6.50;;;8.40;99.90;;;;;;5054266;28;20204;-65
2020/12/19 00:22:54;;;;;;;9.10;6.53;;;8.40;99.90;;;;;;5054413;28;20183;-65
2020/12/19 00:25:20;;;;;;;9.97;5.93;;;8.30;99.90;;;;;;5053950;28;20569;-65
2020/12/19 00:27:45;;;;;;;7.90;6.07;;;8.30;99.90;;;;;;5053896;28;20241;-65
2020/12/19 00:30:11;;;;;;;8.40;6.50;;;8.40;99.90;;;;;;5053725;28;20262;-65
2020/12/19 00:32:40;;;;;;;9.07;6.50;;;8.40;87.90;;;;;;5052971;28;20287;-65
2020/12/19 00:35:07;;;;;;;8.75;6.80;;;8.30;99.90;;;;;;5053252;28;20806;-65
2020/12/19 00:37:33;;;;;;;11.52;6.93;;;8.40;1.00;;;;;;5053543;28;20518;-65
2020/12/19 00:39:59;;;;;;;9.10;6.90;;;8.60;99.90;;;;;;5053253;28;20169;-65
2020/12/19 00:42:24;;;;;;;10.07;6.33;;;8.50;99.90;;;;;;5052816;28;20253;-65
2020/12/19 00:44:50;;;;;;;10.90;6.23;;;8.70;91.10;;;;;;5052721;28;20407;-65
2020/12/19 00:47:16;;;;;;;8.77;6.30;;;8.70;1.00;;;;;;5052656;28;20196;-65
2020/12/19 00:49:41;;;;;;;9.50;6.50;;;8.80;1.00;;;;;;5051462;28;20165;-66
2020/12/19 00:52:07;;;;;;;10.30;8.00;;;8.80;1.00;;;;;;5052550;28;20757;-65
2020/12/19 00:54:33;;;;;;;10.00;6.83;;;8.90;1.00;;;;;;5053015;28;20165;-65
2020/12/19 00:56:58;;;;;;;7.83;5.80;;;8.90;1.00;;;;;;5053007;28;20177;-65
2020/12/19 00:59:24;;;;;;;8.23;5.53;;;9.00;1.00;;;;;;5052940;28;20176;-64
2020/12/19 01:01:49;;;;;;;7.73;6.90;;;9.00;1.00;;;;;;5052452;28;20682;-65
2020/12/19 01:04:15;;;;;;;12.00;6.33;;;9.10;1.00;;;;;;5052843;28;20214;-65
2020/12/19 01:06:41;;;;;;;8.90;5.43;;;9.20;1.00;;;;;;5052660;28;20627;-65
2020/12/19 01:09:07;;;;;;;8.73;6.50;;;9.20;1.00;;;;;;5052622;28;20211;-65
2020/12/19 01:11:35;;;;;;;7.20;6.50;;;9.20;1.00;;;;;;5052305;28;20423;-65
2020/12/19 01:14:00;;;;;;;8.20;6.00;;;9.00;1.00;;;;;;5052326;28;20402;-65
2020/12/19 01:16:28;;;;;;;9.67;6.33;;;9.10;1.00;;;;;;5050980;28;20173;-65
2020/12/19 01:18:55;;;;;;;8.00;5.97;;;9.20;1.00;;;;;;5051967;28;20507;-66
2020/12/19 01:21:23;;;;;;;10.87;6.10;;;9.20;1.00;;;;;;5052115;28;20396;-65
2020/12/19 01:23:50;;;;;;;8.10;6.00;;;9.20;1.00;;;;;;5052120;28;20946;-65
2020/12/19 01:26:17;;;;;;;8.65;6.28;;;9.30;1.00;;;;;;5052118;28;20505;-65
2020/12/19 01:28:42;;;;;;;10.17;6.63;;;9.20;1.00;;;;;;5050023;28;20176;-66
2020/12/19 01:31:10;;;;;;;7.93;6.53;;;9.10;1.00;;;;;;5032984;28;557902;-66
2020/12/19 01:33:37;;;;;;;9.05;6.60;;;9.10;1.00;;;;;;5052924;28;20200;-66
2020/12/19 01:36:03;;;;;;;9.40;6.70;;;9.10;1.00;;;;;;5052869;28;20168;-66
2020/12/19 01:38:29;;;;;;;11.60;8.00;;;9.00;1.00;;;;;;5052915;28;20797;-66
2020/12/19 01:40:56;;;;;;;8.73;6.30;;;8.90;1.00;;;;;;5052881;28;20431;-66
2020/12/19 01:43:22;;;;;;;6.73;5.90;;;8.90;1.00;;;;;;5052829;28;20173;-66
2020/12/19 01:45:49;;;;;;;8.88;6.82;;;8.90;1.00;;;;;;5053127;28;20813;-65
2020/12/19 01:48:23;;;;;;;11.80;6.50;;;8.90;1.00;;;;;;5052786;28;20175;-66
2020/12/19 01:50:50;;;;;;;10.80;6.80;;;8.90;1.00;;;;;;5052732;28;20779;-66
2020/12/19 01:53:16;;;;;;;9.98;7.68;;;9.00;1.00;;;;;;5052886;28;20411;-66
2020/12/19 01:55:43;;;;;;;8.95;6.88;;;9.00;1.00;;;;;;5053051;28;20173;-66
2020/12/19 01:58:09;;;;;;;8.20;6.77;;;9.00;1.00;;;;;;5052650;28;20177;-65
2020/12/19 02:00:41;;;;;;;9.63;7.20;;;9.10;1.00;;;;;;5051366;28;20430;-66
2020/12/19 02:03:07;;;;;;;10.88;8.02;;;9.10;1.00;;;;;;5052557;28;20396;-66
2020/12/19 02:05:35;;;;;;;9.88;6.85;;;9.10;1.00;;;;;;5052421;28;20654;-66
2020/12/19 02:08:01;;;;;;;7.65;6.45;;;9.20;1.00;;;;;;5052702;28;20189;-66
2020/12/19 02:10:32;;;;;;;11.68;8.38;;;9.00;1.00;;;;;;5052669;28;20212;-66
2020/12/19 02:13:01;;;;;;;9.70;7.43;;;8.90;1.00;;;;;;5052806;28;20157;-65
2020/12/19 02:15:27;;;;;;;9.95;7.60;;;9.10;1.00;;;;;;5052459;28;20176;-66
2020/12/19 02:17:52;;;;;;;10.53;6.30;;;9.20;1.00;;;;;;5052462;28;20649;-66
2020/12/19 02:20:18;;;;;;;10.70;7.30;;;9.20;1.00;;;;;;5052453;28;20189;-66
2020/12/19 02:22:44;;;;;;;9.70;7.67;;;9.10;1.00;;;;;;5052480;28;20172;-66
2020/12/19 02:25:10;;;;;;;10.25;7.75;;;9.10;1.00;;;;;;5052263;28;20226;-66
2020/12/19 02:27:36;;;;;;;12.00;7.57;;;9.10;1.00;;;;;;5052654;28;20259;-66
2020/12/19 02:30:02;;;;;;;10.93;7.10;;;9.10;1.00;;;;;;5052208;28;20316;-64
2020/12/19 02:32:28;;;;;;;15.20;9.20;;;9.10;1.00;;;;;;5052702;28;20218;-64
2020/12/19 02:34:54;;;;;;;13.70;8.47;;;9.10;1.00;;;;;;5052294;28;20252;-63
2020/12/19 02:37:19;;;;;;;9.10;7.57;;;9.10;1.00;;;;;;5052619;28;20184;-64
2020/12/19 02:39:45;;;;;;;12.00;8.90;;;9.10;1.00;;;;;;5054584;28;20638;-66
2020/12/19 02:42:10;;;;;;;15.30;9.30;;;9.00;1.00;;;;;;5056039;28;20256;-64
2020/12/19 02:44:36;;;;;;;15.63;8.20;;;9.00;1.00;;;;;;5056022;28;20634;-64
2020/12/19 02:47:01;;;;;;;13.70;8.30;;;8.90;1.00;;;;;;5055786;28;20558;-63
2020/12/19 02:49:27;;;;;;;12.97;8.47;;;8.70;1.00;;;;;;5056037;28;20172;-64
2020/12/19 02:51:52;;;;;;;10.37;7.93;;;8.80;1.00;;;;;;5055675;28;20189;-64
2020/12/19 02:54:18;;;;;;;11.93;9.00;;;8.90;1.00;;;;;;5055722;28;20169;-65
2020/12/19 02:56:43;;;;;;;13.87;8.93;;;8.70;7.30;;;;;;5056077;28;20177;-65
2020/12/19 02:59:09;;;;;;;11.40;8.27;;;8.80;39.10;;;;;;5055790;28;20188;-66
2020/12/19 03:01:35;;;;;;;11.67;8.13;;;8.70;1.00;;;;;;5056909;28;20198;-66
2020/12/19 03:04:00;;;;;;;10.20;8.23;;;8.60;99.90;;;;;;5055805;28;20264;-65
2020/12/19 03:06:26;;;;;;;14.50;8.70;;;8.60;99.90;;;;;;5056336;28;20196;-64
2020/12/19 03:08:52;;;;;;;9.83;7.10;;;8.60;99.90;;;;;;5056156;28;20370;-65
2020/12/19 03:11:18;;;;;;;15.93;8.90;;;8.60;99.90;;;;;;5055942;28;20450;-65
2020/12/19 03:13:43;;;;;;;13.60;7.73;;;8.60;99.90;;;;;;5055640;28;20176;-66
2020/12/19 03:16:09;;;;;;;11.57;8.73;;;8.60;79.20;;;;;;5053963;28;20637;-66
2020/12/19 03:18:35;;;;;;;11.33;8.00;;;8.60;99.90;;;;;;5055507;28;20177;-66
2020/12/19 03:21:00;;;;;;;11.40;7.63;;;8.60;99.90;;;;;;5055230;28;20189;-66
2020/12/19 03:23:26;;;;;;;10.80;8.13;;;8.50;99.90;;;;;;5055202;28;20226;-66
2020/12/19 03:25:51;;;;;;;11.80;8.80;;;8.40;99.90;;;;;;5055090;28;20197;-66
2020/12/19 03:28:18;;;;;;;9.87;7.90;;;8.50;99.90;;;;;;5055131;28;20242;-66
2020/12/19 03:30:44;;;;;;;13.05;7.97;;;8.60;99.90;;;;;;5054793;28;20208;-65
2020/12/19 03:33:09;;;;;;;13.23;8.70;;;8.60;99.90;;;;;;5054967;28;20165;-66
2020/12/19 03:35:36;;;;;;;16.93;8.33;;;8.70;99.90;;;;;;5055026;28;20508;-66
2020/12/19 03:38:02;;;;;;;10.73;7.87;;;8.70;99.90;;;;;;5054997;28;20176;-65
2020/12/19 03:40:28;;;;;;;11.50;7.75;;;8.60;99.90;;;;;;5054626;28;20427;-66
2020/12/19 03:42:54;;;;;;;11.50;7.90;;;8.40;99.90;;;;;;5055788;28;20173;-65
2020/12/19 03:45:19;;;;;;;11.53;8.43;;;8.50;99.90;;;;;;5054677;28;20218;-65
2020/12/19 03:47:45;;;;;;;9.63;7.50;;;8.50;99.90;;;;;;5055970;28;20180;-66
2020/12/19 03:50:11;;;;;;;10.03;8.07;;;8.40;99.90;;;;;;5055074;28;20185;-66
2020/12/19 03:52:37;;;;;;;10.37;7.77;;;8.40;99.90;;;;;;5054195;28;20179;-66
2020/12/19 03:55:04;;;;;;;10.50;8.37;;;8.40;99.90;;;;;;5054523;28;20184;-66
2020/12/19 03:57:29;;;;;;;11.88;8.30;;;8.40;1.00;;;;;;5054453;28;20410;-66
2020/12/19 03:59:55;;;;;;;11.63;8.17;;;8.40;99.90;;;;;;5054406;28;20179;-66
2020/12/19 04:02:21;;;;;;;11.00;8.80;;;8.40;1.00;;;;;;5054340;28;20248;-66
2020/12/19 04:04:46;;;;;;;12.10;9.30;;;8.40;99.90;;;;;;5054348;28;20177;-66
2020/12/19 04:07:12;;;;;;;8.80;7.43;;;8.30;1.00;;;;;;5054615;28;20200;-66
2020/12/19 04:09:38;;;;;;;11.60;8.67;;;8.30;1.00;;;;;;5054256;28;20167;-66
2020/12/19 04:12:04;;;;;;;12.80;8.20;;;8.30;11.60;;;;;;5054159;28;20238;-66
2020/12/19 04:14:42;;;;;;;9.20;7.37;;;8.30;1.00;;;;;;5054296;28;20638;-66
2020/12/19 04:17:09;;;;;;;10.25;8.70;;;8.30;1.00;;;;;;5054156;28;20157;-66
2020/12/19 04:19:36;;;;;;;9.80;7.68;;;8.20;1.00;;;;;;5054043;28;20173;-66
2020/12/19 04:22:03;;;;;;;11.77;9.18;;;8.30;99.90;;;;;;5053916;28;20194;-66
2020/12/19 04:24:29;;;;;;;14.23;8.73;;;8.30;1.00;;;;;;5054013;28;20182;-65
2020/12/19 04:26:54;;;;;;;12.57;8.60;;;8.30;1.00;;;;;;5053835;28;20193;-66
2020/12/19 04:29:20;;;;;;;13.40;8.93;;;8.30;99.90;;;;;;5053969;28;20649;-66
2020/12/19 04:31:45;;;;;;;13.37;8.30;;;8.30;1.00;;;;;;5053696;28;20285;-66
2020/12/19 04:34:11;;;;;;;10.40;8.27;;;8.30;1.00;;;;;;5053651;28;20264;-67
2020/12/19 04:36:37;;;;;;;11.90;8.23;;;8.30;6.50;;;;;;5053761;28;20238;-66
2020/12/19 04:39:03;;;;;;;10.87;7.40;;;8.30;1.00;;;;;;5053727;28;20188;-66
2020/12/19 04:41:29;;;;;;;9.48;8.07;;;8.30;18.40;;;;;;5053937;28;20235;-66
2020/12/19 04:43:55;;;;;;;11.63;8.67;;;8.30;99.90;;;;;;5052355;28;20211;-65
2020/12/19 04:46:22;;;;;;;12.43;8.93;;;8.40;99.90;;;;;;5053804;28;20189;-65
2020/12/19 04:48:48;;;;;;;13.75;8.35;;;8.40;50.20;;;;;;5053530;28;20161;-65
2020/12/19 04:51:14;;;;;;;11.85;9.43;;;8.30;1.00;;;;;;5053425;28;20196;-66
2020/12/19 04:53:41;;;;;;;10.45;8.07;;;8.20;75.60;;;;;;5053376;28;20203;-66
2020/12/19 04:56:07;;;;;;;12.60;8.50;;;8.30;51.40;;;;;;5052245;28;20274;-66
2020/12/19 04:58:33;;;;;;;12.13;8.65;;;8.30;1.00;;;;;;5053972;28;20636;-65
2020/12/19 05:00:58;;;;;;;14.47;9.17;;;8.10;99.90;;;;;;5053330;28;20199;-66
2020/12/19 05:03:24;;;;;;;11.07;8.80;;;8.20;99.90;;;;;;5052432;28;20173;-65
2020/12/19 05:05:49;;;;;;;11.63;8.43;;;8.30;99.90;;;;;;5053526;28;20201;-66
2020/12/19 05:08:15;;;;;;;11.20;9.40;;;8.20;99.90;;;;;;5053195;28;20169;-66
2020/12/19 05:10:40;;;;;;;10.20;7.33;;;8.20;1.00;;;;;;5053095;28;20189;-66
2020/12/19 05:13:06;;;;;;;14.73;9.40;;;8.10;78.10;;;;;;5053130;28;20219;-65
2020/12/19 05:15:32;;;;;;;12.57;8.87;;;8.10;1.00;;;;;;5053080;28;20169;-66
2020/12/19 05:17:59;;;;;;;10.40;8.07;;;8.20;58.50;;;;;;5053040;28;20173;-65
2020/12/19 05:20:27;;;;;;;10.38;8.57;;;8.10;1.00;;;;;;5052960;28;20672;-65
2020/12/19 05:22:53;;;;;;;10.35;8.15;;;8.20;1.00;;;;;;5052986;28;20195;-65
2020/12/19 05:25:21;;;;;;;13.55;8.15;;;8.20;1.00;;;;;;5052862;28;20173;-65
2020/12/19 05:27:48;;;;;;;11.32;9.43;;;8.20;1.00;;;;;;5052816;28;20541;-66
2020/12/19 05:32:52;;;;;;;13.45;8.77;;;8.20;1.00;;;;;;5092513;22;20254;-66
2020/12/19 05:35:20;;;;;;;11.43;7.88;;;8.20;1.00;;;;;;5071035;28;20169;-65
2020/12/19 05:37:59;;;;;;;15.02;7.45;;;8.20;1.00;;;;;;5072068;28;20167;-66
2020/12/19 05:40:27;;;;;;;13.75;9.00;;;8.20;31.20;;;;;;5070892;28;20184;-66
2020/12/19 05:42:53;;;;;;;8.80;7.68;;;8.20;1.00;;;;;;5071267;28;20164;-66
2020/12/19 05:45:21;;;;;;;12.00;8.83;;;8.20;57.90;;;;;;5070499;28;20557;-66
2020/12/19 05:47:48;;;;;;;11.82;7.63;;;8.30;13.00;;;;;;5071775;28;20172;-66
2020/12/19 05:50:14;;;;;;;11.80;9.05;;;8.20;11.30;;;;;;5072134;28;20165;-66
2020/12/19 05:52:40;;;;;;;10.40;8.38;;;8.20;99.90;;;;;;5072524;28;20190;-66
2020/12/19 05:55:09;;;;;;;12.15;8.30;;;8.30;99.90;;;;;;5073205;28;20219;-66
2020/12/19 05:57:36;;;;;;;11.32;8.32;;;8.30;1.00;;;;;;5071343;28;20188;-66
2020/12/19 06:00:10;;;;;;;12.35;8.70;;;8.40;1.00;;;;;;5072329;28;20161;-66
2020/12/19 06:02:37;;;;;;;11.70;9.10;;;8.40;1.00;;;;;;5071003;28;20190;-64
2020/12/19 06:05:14;;;;;;;10.65;8.05;;;8.40;99.90;;;;;;5070119;28;20242;-64
2020/12/19 06:07:44;;;;;;;11.65;8.02;;;8.40;1.00;;;;;;5072080;28;20157;-65
2020/12/19 06:10:14;;;;;;;11.90;9.30;;;8.50;1.00;;;;;;5072185;28;20161;-66
2020/12/19 06:13:10;;;;;;;13.20;8.80;;;8.50;1.00;;;;;;5071988;28;20200;-65
2020/12/19 06:15:38;;;;;;;12.93;8.45;;;8.50;1.00;;;;;;5075810;28;20164;-66
2020/12/19 06:18:30;;;;;;;14.23;9.55;;;8.40;1.00;;;;;;5075628;28;20188;-64
2020/12/19 06:20:57;;;;;;;11.40;9.75;;;8.50;1.00;;;;;;5064235;28;20243;-66
2020/12/19 06:23:31;;;;;;;10.88;8.35;;;8.60;1.00;;;;;;5077227;28;20168;-65
2020/12/19 06:25:57;;;;;;;16.65;8.27;;;8.60;1.00;;;;;;5077059;28;20195;-66
2020/12/19 06:28:44;;;;;;;11.13;8.60;;;8.60;99.90;;;;;;5075443;28;20165;-66
2020/12/19 06:31:18;;;;;;;12.23;7.85;;;8.60;99.90;;;;;;5075136;28;20212;-64
2020/12/19 06:33:49;;;;;;;11.75;8.30;;;8.60;1.00;;;;;;5071003;28;20157;-65
2020/12/19 06:36:20;;;;;;;12.43;8.93;;;8.60;1.00;;;;;;5070656;28;20154;-64
2020/12/19 06:38:52;;;;;;;13.02;8.90;;;8.70;99.90;;;;;;5075134;28;20173;-64
2020/12/19 06:41:58;;;;;;;12.43;8.95;;;8.70;99.90;;;;;;5074686;28;20204;-64
2020/12/19 06:44:31;;;;;;;12.50;8.60;;;8.80;99.90;;;;;;5075531;28;20195;-64
2020/12/19 06:47:00;;;;;;;10.40;7.32;;;8.80;99.90;;;;;;5075893;28;20184;-65
2020/12/19 06:49:36;;;;;;;10.10;8.13;;;8.80;99.90;;;;;;5075717;28;20245;-65
2020/12/19 06:52:20;;;;;;;11.65;8.75;;;8.80;99.90;;;;;;5075917;28;20193;-64
2020/12/19 06:54:48;;;;;;;8.85;7.80;;;8.90;99.90;;;;;;5075798;28;20239;-65
2020/12/19 06:57:27;;;;;;;10.80;8.93;;;9.00;1.00;;;;;;5075828;28;20168;-65
2020/12/19 06:59:55;;;;;;;17.85;9.30;;;8.90;1.00;;;;;;5075529;28;20169;-64
2020/12/19 07:02:23;;;;;;;15.43;9.23;;;8.90;1.00;;;;;;5075156;28;20672;-64
2020/12/19 07:04:49;;;;;;;13.45;9.48;;;8.90;1.00;;;;;;5074134;28;20165;-65
2020/12/19 07:07:21;;;;;;;14.73;9.73;;;8.90;1.00;;;;;;5075755;28;20189;-64
2020/12/19 07:10:13;;;;;;;12.35;9.00;;;8.70;1.00;;;;;;5076016;28;20626;-65
2020/12/19 07:12:40;;;;;;;14.55;9.60;;;8.70;99.90;;;;;;5071628;28;20192;-65
2020/12/19 07:15:08;;;;;;;11.27;8.95;;;8.70;99.90;;;;;;5074443;28;20188;-65
2020/12/19 07:17:48;;;;;;;14.82;10.52;;;8.70;44.40;;;;;;5073892;28;20177;-65
2020/12/19 07:20:21;;;;;;;11.13;9.13;;;8.70;44.60;;;;;;5075088;28;20165;-65
2020/12/19 07:22:46;;;;;;;13.30;9.52;;;8.70;1.00;;;;;;5074897;28;20234;-65
2020/12/19 07:25:12;;;;;;;12.60;8.87;;;8.70;26.70;;;;;;5074367;28;20184;-65
2020/12/19 07:27:38;;;;;;;11.57;9.10;;;8.70;1.00;;;;;;5075092;28;20415;-65
2020/12/19 07:30:03;;;;;;;17.87;9.10;;;8.70;16.50;;;;;;5075488;28;20173;-64
2020/12/19 07:32:29;;;;;;;12.90;9.50;;;8.70;22.10;;;;;;5074346;28;20193;-65
2020/12/19 07:34:56;;;;;;;12.47;8.20;;;8.70;1.00;;;;;;5071943;28;20244;-65
2020/12/19 07:37:22;;;;;;;10.30;8.32;;;8.60;48.90;;;;;;5070020;28;20157;-65
2020/12/19 07:39:48;;;;;;;12.82;8.32;;;8.80;1.00;;;;;;5070832;28;20191;-65
2020/12/19 07:42:14;;;;;;;10.18;8.50;;;8.80;1.00;;;;;;5070999;28;20218;-64
2020/12/19 07:44:40;;;;;;;10.13;8.40;;;8.80;1.00;;;;;;5070444;28;20204;-65
2020/12/19 07:47:13;;;;;;;12.93;9.23;;;8.80;1.00;;;;;;5069859;28;20426;-65
2020/12/19 07:49:41;;;;;;;11.95;9.02;;;8.90;1.00;;;;;;5074433;28;20161;-65
2020/12/19 07:52:15;;;;;;;13.77;9.07;;;8.90;1.00;;;;;;5073856;28;20193;-65
2020/12/19 07:54:50;;;;;;;11.23;8.65;;;8.90;1.00;;;;;;5073682;28;20152;-65
2020/12/19 07:57:16;;;;;;;13.15;9.02;;;8.90;1.00;;;;;;5073537;28;20652;-65
2020/12/19 07:59:42;;;;;;;12.87;8.77;;;8.90;99.90;;;;;;5071827;28;20184;-65
2020/12/19 08:02:10;;;;;;;11.90;7.78;;;8.90;99.90;;;;;;5071857;28;20459;-65
2020/12/19 08:04:36;;;;;;;11.17;8.20;;;8.90;1.00;;;;;;5072254;28;20228;-65
2020/12/19 08:07:02;;;;;;;9.40;7.70;;;9.00;99.90;;;;;;5076017;28;20447;-64
2020/12/19 08:09:27;;;;;;;12.27;8.20;;;8.90;99.90;;;;;;5076019;28;20257;-65
2020/12/19 08:11:58;;;;;;;12.00;7.73;;;8.90;1.00;;;;;;5075464;28;20354;-65
2020/12/19 08:14:24;;;;;;;11.63;8.30;;;8.90;1.00;;;;;;5074444;28;20173;-65
2020/12/19 08:16:50;;;;;;;8.83;7.87;;;9.00;99.90;;;;;;5073599;28;20836;-65
2020/12/19 08:19:33;;;;;;;12.50;8.80;;;9.00;99.90;;;;;;5076864;28;20420;-65
2020/12/19 08:22:01;;;;;;;11.45;8.02;;;9.10;99.90;;;;;;5075320;28;20460;-65
2020/12/19 08:24:28;;;;;;;13.93;9.48;;;9.20;99.90;;;;;;5076060;28;20176;-65
2020/12/19 08:27:26;;;;;;;11.23;8.40;;;9.10;99.90;;;;;;5075484;28;20212;-64
2020/12/19 08:30:02;;;;;;;11.65;7.18;;;9.10;99.90;;;;;;5071221;28;20173;-65
2020/12/19 08:32:28;;;;;;;12.37;8.60;;;9.30;99.90;;;;;;5066937;28;20261;-65
2020/12/19 08:34:54;;;;;;;11.90;9.20;;;9.30;39.90;;;;;;5071265;28;20441;-65
2020/12/19 08:37:20;;;;;;;10.40;7.30;;;9.30;75.00;;;;;;5069515;28;20415;-65
2020/12/19 08:40:31;;;;;;;10.17;8.40;;;9.40;1.00;;;;;;5069544;28;20187;-65
2020/12/19 08:42:56;;;;;;;11.48;7.45;;;9.40;1.00;;;;;;5011535;28;20440;-65
2020/12/19 08:45:24;;;;;;;10.17;8.33;;;9.40;1.00;;;;;;5010072;28;20190;-65
2020/12/19 08:47:53;;;;;;;9.35;7.88;;;9.40;1.00;;;;;;5042170;28;20176;-65
2020/12/19 08:50:24;;;;;;;12.35;8.10;;;9.50;1.00;;;;;;5070190;28;20153;-65
2020/12/19 08:53:02;;;;;;;11.27;7.95;;;9.60;1.00;;;;;;5070981;28;20172;-65
2020/12/19 08:55:28;;;;;;;11.70;7.70;;;9.60;1.00;;;;;;5068426;28;20161;-65
2020/12/19 08:57:53;;;;;;;10.70;8.17;;;9.70;1.00;;;;;;5068397;28;20203;-65
2020/12/19 09:00:19;;;;;;;9.27;7.70;;;9.70;1.00;;;;;;5067393;28;20186;-65
2020/12/19 09:02:45;;;;;;;7.97;6.67;;;9.90;1.00;;;;;;5068816;28;20195;-65
2020/12/19 09:05:11;;;;;;;9.70;7.80;;;9.90;1.00;;;;;;5068992;28;20237;-66
2020/12/19 09:07:37;;;;;;;11.20;7.47;;;10.10;99.90;;;;;;5066373;28;20450;-64
2020/12/19 09:10:29;;;;;;;10.87;6.77;;;10.20;99.90;;;;;;5063874;28;20192;-67
2020/12/19 09:13:19;;;;;;;7.50;6.67;;;10.20;99.90;;;;;;5063762;28;20396;-65
2020/12/19 09:15:46;;;;;;;8.80;6.28;;;10.30;99.90;;;;;;5062821;28;20760;-65
2020/12/19 09:18:23;;;;;;;9.60;7.07;;;10.40;99.90;;;;;;5062959;28;20180;-65
2020/12/19 09:20:57;;;;;;;10.17;7.40;;;10.50;99.90;;;;;;5063199;28;20414;-65
2020/12/19 09:23:24;;;;;;;12.43;7.60;;;10.70;99.90;;;;;;5063069;28;20384;-65
2020/12/19 09:25:50;;;;;;;9.27;6.63;;;10.70;99.90;;;;;;5062944;28;20188;-65
2020/12/19 09:28:16;;;;;;;9.27;6.83;;;10.80;99.90;;;;;;5063188;28;20415;-65
2020/12/19 09:30:42;;;;;;;9.77;6.40;;;10.80;99.90;;;;;;5062922;28;20802;-65
2020/12/19 09:33:08;;;;;;;8.13;6.50;;;11.00;99.90;;;;;;5063185;28;20221;-64
2020/12/19 09:35:34;;;;;;;8.53;5.20;;;11.10;99.90;;;;;;5061705;28;20310;-64
2020/12/19 09:38:00;;;;;;;9.97;6.60;;;11.10;99.90;;;;;;5060950;28;20907;-66
2020/12/19 09:40:27;;;;;;;7.03;5.53;;;11.20;99.90;;;;;;5062530;28;20182;-65
2020/12/19 09:42:52;;;;;;;9.20;5.97;;;11.30;99.90;;;;;;5062030;28;20229;-65
2020/12/19 09:45:18;;;;;;;9.10;5.70;;;11.40;99.90;;;;;;5062335;28;20431;-65
2020/12/19 09:47:44;;;;;;;7.50;4.97;;;11.40;99.90;;;;;;5061518;28;20169;-65
2020/12/19 09:50:11;;;;;;;7.40;6.00;;;11.50;99.90;;;;;;5065357;28;20419;-65
2020/12/19 09:52:40;;;;;;;10.87;6.77;;;11.70;99.90;;;;;;5068191;28;20197;-65
2020/12/19 09:55:07;;;;;;;6.53;5.83;;;12.00;99.90;;;;;;5069179;28;20418;-65
2020/12/19 09:57:33;;;;;;;5.77;5.17;;;11.90;99.90;;;;;;5068286;28;20415;-65
2020/12/19 09:59:59;;;;;;;6.33;5.60;;;12.00;99.90;;;;;;5067192;28;20419;-65
2020/12/19 10:02:24;;;;;;;9.30;6.13;;;12.20;88.30;;;;;;5066266;28;20746;-65
2020/12/19 10:04:50;;;;;;;10.07;4.90;;;12.30;63.60;;;;;;5066361;28;20415;-65
2020/12/19 10:07:15;;;;;;;7.40;4.80;;;12.40;41.70;;;;;;5067495;28;20678;-66
2020/12/19 10:09:41;;;;;;;7.13;5.57;;;12.40;54.20;;;;;;5066224;28;20267;-66
2020/12/19 10:12:07;;;;;;;8.37;6.07;;;12.60;37.80;;;;;;5066177;28;20188;-65
2020/12/19 10:14:33;;;;;;;8.47;5.63;;;12.80;26.80;;;;;;5065904;28;20168;-65
2020/12/19 10:16:58;;;;;;;7.13;5.60;;;12.80;15.60;;;;;;5066393;28;20231;-66
2020/12/19 10:19:24;;;;;;;6.63;4.93;;;12.90;9.30;;;;;;5066284;28;20173;-65
2020/12/19 10:21:50;;;;;;;6.50;4.43;;;13.20;1.90;;;;;;5064701;28;20197;-66
2020/12/19 10:24:15;;;;;;;6.10;4.90;;;13.00;1.20;;;;;;5063765;28;20176;-66
2020/12/19 10:26:41;;;;;;;6.03;4.60;;;13.40;1.00;;;;;;5064538;28;20219;-65
2020/12/19 10:29:07;;;;;;;7.50;4.93;;;13.20;1.00;;;;;;5064838;28;20179;-65
2020/12/19 10:31:32;;;;;;;8.17;5.13;;;13.30;1.00;;;;;;5064615;28;20255;-65
2020/12/19 10:33:58;;;;;;;6.47;4.03;;;13.50;1.00;;;;;;5064406;28;20764;-65
2020/12/19 10:36:23;;;;;;;14.30;4.67;;;13.60;1.00;;;;;;5063657;28;20173;-65
2020/12/19 10:38:49;;;;;;;4.80;3.77;;;13.70;1.00;;;;;;5064898;28;20228;-65
2020/12/19 10:41:15;;;;;;;6.57;4.70;;;13.70;1.00;;;;;;5064766;28;20541;-66
2020/12/19 10:43:41;;;;;;;5.53;4.40;;;14.00;1.00;;;;;;5065874;28;20200;-66
2020/12/19 10:46:07;;;;;;;6.77;5.47;;;14.00;1.00;;;;;;5063840;28;20541;-66
2020/12/19 10:48:33;;;;;;;7.90;5.10;;;13.90;1.00;;;;;;5064918;28;20419;-66
2020/12/19 10:50:58;;;;;;;6.30;4.27;;;14.10;1.00;;;;;;5065271;28;20559;-66
2020/12/19 10:53:24;;;;;;;6.07;3.93;;;14.20;1.00;;;;;;5065499;28;20177;-65
2020/12/19 10:55:51;;;;;;;5.53;4.23;;;14.10;1.00;;;;;;5065794;28;20186;-66
2020/12/19 10:58:16;;;;;;;9.87;5.10;;;14.10;1.00;;;;;;5064646;28;20173;-65
2020/12/19 11:00:42;;;;;;;6.73;5.83;;;14.30;1.00;;;;;;5063042;28;20443;-66
2020/12/19 11:03:08;;;;;;;6.37;4.27;;;14.40;1.00;;;;;;5063149;28;20446;-66
2020/12/19 11:05:37;;;;;;;8.23;4.60;;;14.60;1.00;;;;;;5063105;28;20650;-66
2020/12/19 11:08:03;;;;;;;7.10;3.90;;;14.50;1.00;;;;;;5062141;28;20226;-66
2020/12/19 11:10:28;;;;;;;14.83;4.70;;;14.70;1.00;;;;;;5061726;28;20988;-66
2020/12/19 11:12:54;;;;;;;6.30;3.40;;;14.70;1.00;;;;;;5062627;28;20221;-66
2020/12/19 11:15:19;;;;;;;8.07;4.23;;;14.70;1.00;;;;;;5062014;28;20220;-65
2020/12/19 11:17:45;;;;;;;12.53;3.80;;;14.70;1.00;;;;;;5061343;28;20222;-65
2020/12/19 11:20:10;;;;;;;5.30;3.50;;;14.90;1.00;;;;;;5061050;28;20175;-66
2020/12/19 11:22:36;;;;;;;5.40;3.70;;;15.20;1.00;;;;;;5061525;28;20195;-65
2020/12/19 11:25:02;;;;;;;12.87;4.20;;;15.00;1.00;;;;;;5062247;28;20179;-66
2020/12/19 11:27:27;;;;;;;3.77;3.47;;;15.30;1.00;;;;;;5062048;28;20191;-65
2020/12/19 11:29:53;;;;;;;7.80;3.87;;;15.40;1.00;;;;;;5060885;28;20182;-66
2020/12/19 11:32:18;;;;;;;4.23;3.53;;;15.40;1.00;;;;;;5070419;22;20653;-65
2020/12/19 11:34:44;;;;;;;10.57;3.97;;;15.60;1.00;;;;;;5035035;28;20172;-66
2020/12/19 11:37:14;;;;;;;8.77;4.07;;;16.00;1.00;;;;;;5035068;28;20587;-65
2020/12/19 11:39:39;;;;;;;5.10;4.13;;;16.00;1.00;;;;;;5034868;28;20179;-65
2020/12/19 11:42:05;;;;;;;5.10;3.23;;;15.80;1.00;;;;;;5034947;28;20965;-65
2020/12/19 11:44:30;;;;;;;5.90;3.47;;;16.00;1.00;;;;;;5034988;28;20167;-65
2020/12/19 11:46:56;;;;;;;14.87;4.73;;;16.00;1.00;;;;;;5034903;28;20196;-65
2020/12/19 11:49:21;;;;;;;5.20;4.10;;;16.10;1.00;;;;;;5034747;28;20635;-65
2020/12/19 11:51:47;;;;;;;4.50;3.97;;;15.90;1.00;;;;;;5034626;28;20227;-65
2020/12/19 11:54:12;;;;;;;6.50;2.90;;;15.80;1.00;;;;;;5034612;28;20162;-65
2020/12/19 11:56:38;;;;;;;6.43;3.97;;;16.20;1.00;;;;;;5034794;28;20181;-65
2020/12/19 11:59:04;;;;;;;7.17;5.40;;;16.20;1.00;;;;;;5034376;28;20176;-65
2020/12/19 12:01:30;;;;;;;5.70;3.83;;;16.10;1.00;;;;;;5034744;28;20193;-65
2020/12/19 12:03:56;;;;;;;4.83;2.90;;;16.10;1.00;;;;;;5035304;28;20172;-64
2020/12/19 12:06:29;;;;;;;5.10;2.97;;;16.30;1.00;;;;;;5034551;28;20801;-64
2020/12/19 12:08:56;;;;;;;8.77;3.37;;;16.70;1.00;;;;;;5034200;28;20380;-64
2020/12/19 12:11:26;;;;;;;3.70;3.40;;;17.10;1.00;;;;;;5034148;28;20480;-65
2020/12/19 12:13:52;;;;;;;5.97;3.10;;;17.10;1.00;;;;;;5034138;28;20458;-65
2020/12/19 12:16:18;;;;;;;7.17;3.20;;;17.30;1.00;;;;;;5034235;28;20415;-64
2020/12/19 12:18:44;;;;;;;4.53;3.43;;;17.30;1.00;;;;;;5034215;28;20178;-65
2020/12/19 12:21:09;;;;;;;4.17;3.53;;;17.20;1.00;;;;;;5034063;28;20456;-65
2020/12/19 12:23:35;;;;;;;6.30;3.23;;;17.30;1.00;;;;;;5034168;28;20611;-65
2020/12/19 12:26:00;;;;;;;7.90;2.50;;;17.00;1.00;;;;;;5033804;28;20730;-65
2020/12/19 12:28:26;;;;;;;7.70;2.97;;;17.70;1.00;;;;;;5034041;28;20512;-65
2020/12/19 12:30:51;;;;;;;9.47;3.70;;;17.60;1.00;;;;;;5033877;28;20639;-65
2020/12/19 12:33:17;;;;;;;4.97;3.00;;;17.90;1.00;;;;;;5034315;28;20197;-65
2020/12/19 12:35:43;;;;;;;6.77;3.03;;;18.00;1.00;;;;;;5033907;28;20702;-65
2020/12/19 12:38:08;;;;;;;3.40;2.70;;;17.80;1.00;;;;;;5033803;28;20169;-65
2020/12/19 12:40:34;;;;;;;4.40;3.17;;;18.00;1.00;;;;;;5033627;28;20173;-65
2020/12/19 12:42:59;;;;;;;5.40;3.30;;;17.70;1.00;;;;;;5033533;28;20198;-65
2020/12/19 12:45:25;;;;;;;5.43;2.07;;;17.90;1.00;;;;;;5033351;28;20175;-66
2020/12/19 12:47:50;;;;;;;5.00;2.80;;;17.60;1.00;;;;;;5033619;28;20163;-65
2020/12/19 12:50:16;;;;;;;5.00;2.43;;;17.50;1.00;;;;;;5034863;28;20352;-64
2020/12/19 12:52:42;;;;;;;8.30;3.10;;;17.80;1.00;;;;;;5033991;28;20194;-65
2020/12/19 12:55:08;;;;;;;6.77;2.60;;;17.70;1.00;;;;;;5034120;28;20204;-65
2020/12/19 12:57:35;;;;;;;2.17;1.97;;;17.60;1.00;;;;;;5034535;28;20778;-65
2020/12/19 13:00:00;;;;;;;3.37;2.57;;;17.10;1.00;;;;;;5033479;28;20273;-64